createdAt,value
2022-10-14T00:01:24.755Z,10.10
2022-10-14T00:03:52.954Z,10.10
2022-10-14T00:06:24.421Z,10.00
2022-10-14T00:08:51.786Z,10.00
2022-10-14T00:11:25.116Z,10.00
2022-10-14T00:13:59.602Z,10.00
2022-10-14T00:16:37.085Z,10.00
2022-10-14T00:19:08.039Z,10.00
2022-10-14T00:21:39.280Z,10.00
2022-10-14T00:24:14.520Z,9.90
2022-10-14T00:26:41.864Z,9.90
2022-10-14T00:29:18.715Z,9.90
2022-10-14T00:31:49.265Z,9.90
2022-10-14T00:34:19.241Z,9.90
2022-10-14T00:36:49.552Z,9.80
2022-10-14T00:39:19.402Z,9.80
2022-10-14T00:41:47.371Z,9.80
2022-10-14T00:44:14.560Z,9.80
2022-10-14T00:46:48.023Z,9.70
2022-10-14T00:49:24.818Z,9.70
2022-10-14T00:52:05.805Z,9.70
2022-10-14T00:54:41.152Z,9.70
2022-10-14T00:57:09.570Z,9.70
2022-10-14T00:59:37.226Z,9.70
2022-10-14T01:02:04.714Z,9.70
2022-10-14T01:04:40.829Z,9.70
2022-10-14T01:07:20.312Z,9.70
2022-10-14T01:10:31.252Z,9.70
2022-10-14T01:13:33.036Z,9.70
2022-10-14T01:16:25.948Z,9.70
2022-10-14T01:19:37.182Z,9.70
2022-10-14T01:22:25.447Z,9.70
2022-10-14T01:25:18.089Z,9.60
2022-10-14T01:28:18.644Z,9.60
2022-10-14T01:30:55.597Z,9.60
2022-10-14T01:33:29.071Z,9.60
2022-10-14T01:36:02.474Z,9.60
2022-10-14T01:38:44.944Z,9.60
2022-10-14T01:41:23.946Z,9.60
2022-10-14T01:43:54.585Z,9.60
2022-10-14T01:46:26.017Z,9.60
2022-10-14T01:49:03.223Z,9.50
2022-10-14T01:51:49.343Z,9.50
2022-10-14T01:54:25.142Z,9.50
2022-10-14T01:56:55.737Z,9.50
2022-10-14T01:59:24.833Z,9.40
2022-10-14T02:01:52.029Z,9.40
2022-10-14T02:04:22.123Z,9.40
2022-10-14T02:07:07.964Z,9.40
2022-10-14T02:10:08.825Z,9.30
2022-10-14T02:13:12.147Z,9.30
2022-10-14T02:15:50.465Z,9.30
2022-10-14T02:18:45.820Z,9.20
2022-10-14T02:21:33.995Z,9.20
2022-10-14T02:24:25.058Z,9.10
2022-10-14T02:26:58.684Z,9.10
2022-10-14T02:29:30.819Z,9.10
2022-10-14T02:31:59.325Z,9.10
2022-10-14T02:34:27.408Z,9.10
2022-10-14T02:36:58.762Z,9.10
2022-10-14T02:39:34.800Z,9.10
2022-10-14T02:42:02.229Z,9.10
2022-10-14T02:44:32.896Z,9.10
2022-10-14T02:47:03.390Z,9.10
2022-10-14T02:49:33.946Z,9.10
2022-10-14T02:52:01.040Z,9.10
2022-10-14T02:54:28.172Z,9.10
2022-10-14T02:56:55.292Z,9.20
2022-10-14T02:59:22.607Z,9.20
2022-10-14T03:01:50.007Z,9.20
2022-10-14T03:04:17.086Z,9.20
2022-10-14T03:06:46.972Z,9.20
2022-10-14T03:09:14.169Z,9.10
2022-10-14T03:11:44.758Z,9.10
2022-10-14T03:14:12.306Z,9.10
2022-10-14T03:16:42.541Z,9.10
2022-10-14T03:19:13.331Z,9.20
2022-10-14T03:21:40.438Z,9.20
2022-10-14T03:24:09.347Z,9.20
2022-10-14T03:26:36.508Z,9.30
2022-10-14T03:29:03.724Z,9.30
2022-10-14T03:31:30.863Z,9.30
2022-10-14T03:33:58.009Z,9.40
2022-10-14T03:36:28.582Z,9.40
2022-10-14T03:38:55.795Z,9.50
2022-10-14T03:41:22.877Z,9.50
2022-10-14T03:43:50.164Z,9.50
2022-10-14T03:46:20.521Z,9.50
2022-10-14T03:48:47.882Z,9.60
2022-10-14T03:51:17.901Z,9.60
2022-10-14T03:53:45.073Z,9.60
2022-10-14T03:56:12.551Z,9.70
2022-10-14T03:58:40.059Z,9.70
2022-10-14T04:01:10.736Z,9.70
2022-10-14T04:03:46.643Z,9.70
2022-10-14T04:06:14.616Z,9.70
2022-10-14T04:08:41.910Z,9.80
2022-10-14T04:11:09.477Z,9.80
2022-10-14T04:13:37.079Z,9.80
2022-10-14T04:16:10.234Z,9.80
2022-10-14T04:18:38.265Z,9.80
2022-10-14T04:21:09.409Z,9.80
2022-10-14T04:23:36.883Z,9.80
2022-10-14T04:26:09.559Z,9.80
2022-10-14T04:28:37.390Z,9.80
2022-10-14T04:31:07.279Z,9.80
2022-10-14T04:33:35.168Z,9.80
2022-10-14T04:36:05.616Z,9.80
2022-10-14T04:38:36.089Z,9.80
2022-10-14T04:41:06.622Z,9.80
2022-10-14T04:43:33.760Z,9.90
2022-10-14T04:46:01.053Z,9.90
2022-10-14T04:48:28.605Z,9.90
2022-10-14T04:50:55.670Z,10.00
2022-10-14T04:53:23.012Z,10.00
2022-10-14T04:55:51.789Z,10.00
2022-10-14T04:58:18.998Z,10.10
2022-10-14T05:00:49.627Z,10.10
2022-10-14T05:03:16.755Z,10.10
2022-10-14T05:05:44.020Z,10.10
2022-10-14T05:08:11.188Z,10.20
2022-10-14T05:10:39.033Z,10.20
2022-10-14T05:13:09.482Z,10.20
2022-10-14T05:15:40.140Z,10.20
2022-10-14T05:18:07.385Z,10.20
2022-10-14T05:20:34.966Z,10.30
2022-10-14T05:23:06.150Z,10.20
2022-10-14T05:25:33.273Z,10.30
2022-10-14T05:28:00.406Z,10.30
2022-10-14T05:30:32.218Z,10.30
2022-10-14T05:33:01.755Z,10.30
2022-10-14T05:35:53.640Z,10.40
2022-10-14T05:38:15.904Z,10.40
2022-10-14T05:40:43.738Z,10.40
2022-10-14T05:43:11.423Z,10.40
2022-10-14T05:45:38.847Z,10.40
2022-10-14T05:48:06.454Z,10.50
2022-10-14T05:50:33.807Z,10.50
2022-10-14T05:53:04.614Z,10.50
2022-10-14T05:55:31.689Z,10.60
2022-10-14T05:57:59.013Z,10.60
2022-10-14T06:00:26.700Z,10.60
2022-10-14T06:02:54.309Z,10.70
2022-10-14T06:05:21.571Z,10.70
2022-10-14T06:07:48.684Z,10.70
2022-10-14T06:10:19.034Z,10.80
2022-10-14T06:12:46.180Z,10.80
2022-10-14T06:15:16.547Z,10.80
2022-10-14T06:17:46.420Z,10.90
2022-10-14T06:20:13.525Z,10.90
2022-10-14T06:22:40.726Z,11.00
2022-10-14T06:25:08.625Z,11.00
2022-10-14T06:27:35.705Z,11.10
2022-10-14T06:30:03.608Z,11.20
2022-10-14T06:32:33.812Z,11.20
2022-10-14T06:35:01.169Z,11.30
2022-10-14T06:37:29.504Z,11.40
2022-10-14T06:39:57.051Z,11.40
2022-10-14T06:42:28.191Z,11.50
2022-10-14T06:44:56.055Z,11.60
2022-10-14T06:47:23.165Z,11.60
2022-10-14T06:49:50.359Z,11.70
2022-10-14T06:52:17.967Z,11.80
2022-10-14T06:54:48.254Z,11.90
2022-10-14T06:57:16.238Z,11.90
2022-10-14T06:59:46.835Z,11.90
2022-10-14T07:02:14.320Z,11.90
2022-10-14T07:04:41.705Z,12.00
2022-10-14T07:07:09.219Z,12.00
2022-10-14T07:09:39.696Z,12.00
2022-10-14T07:12:07.179Z,12.00
2022-10-14T07:14:34.267Z,12.00
2022-10-14T07:17:01.677Z,12.00
2022-10-14T07:19:28.738Z,12.00
2022-10-14T07:22:02.302Z,12.10
2022-10-14T07:24:29.887Z,12.10
2022-10-14T07:26:57.395Z,12.10
2022-10-14T07:29:24.550Z,12.10
2022-10-14T07:31:57.948Z,12.10
2022-10-14T07:34:25.554Z,12.10
2022-10-14T07:36:56.275Z,12.10
2022-10-14T07:39:27.634Z,12.10
2022-10-14T07:41:57.989Z,12.20
2022-10-14T07:44:28.949Z,12.10
2022-10-14T07:46:56.220Z,12.10
2022-10-14T07:49:23.553Z,12.10
2022-10-14T07:51:50.755Z,12.20
2022-10-14T07:54:22.414Z,12.10
2022-10-14T07:56:50.076Z,12.10
2022-10-14T07:59:21.673Z,12.10
2022-10-14T08:01:53.658Z,12.20
2022-10-14T08:04:21.292Z,12.20
2022-10-14T08:06:49.169Z,12.20
2022-10-14T08:09:18.358Z,12.20
2022-10-14T08:11:46.441Z,12.20
2022-10-14T08:14:14.500Z,12.20
2022-10-14T08:16:45.259Z,12.20
2022-10-14T08:19:14.524Z,12.30
2022-10-14T08:21:43.489Z,12.30
2022-10-14T08:24:11.324Z,12.30
2022-10-14T08:26:48.918Z,12.30
2022-10-14T08:29:16.367Z,12.30
2022-10-14T08:31:43.433Z,12.30
2022-10-14T08:34:11.261Z,12.40
2022-10-14T08:36:38.786Z,12.40
2022-10-14T08:39:12.209Z,12.40
2022-10-14T08:42:04.997Z,12.40
2022-10-14T08:44:41.289Z,12.50
2022-10-14T08:47:15.731Z,12.50
2022-10-14T08:50:07.334Z,12.60
2022-10-14T08:52:53.240Z,12.60
2022-10-14T08:55:46.924Z,12.60
2022-10-14T08:58:20.087Z,12.60
2022-10-14T09:00:52.004Z,12.70
2022-10-14T09:03:33.400Z,12.70
2022-10-14T09:06:18.989Z,12.70
2022-10-14T09:08:50.445Z,12.80
2022-10-14T09:11:24.195Z,12.80
2022-10-14T09:13:57.258Z,12.90
2022-10-14T09:16:36.146Z,13.00
2022-10-14T09:19:12.102Z,13.00
2022-10-14T09:21:52.964Z,13.10
2022-10-14T09:24:35.932Z,13.20
2022-10-14T09:27:22.090Z,13.20
2022-10-14T09:30:02.117Z,13.30
2022-10-14T09:32:44.507Z,13.30
2022-10-14T09:35:28.995Z,13.40
2022-10-14T09:37:56.814Z,13.40
2022-10-14T09:40:47.696Z,13.50
2022-10-14T09:43:21.376Z,13.50
2022-10-14T09:46:08.701Z,13.50
2022-10-14T09:49:04.942Z,13.60
2022-10-14T09:51:34.624Z,13.60
2022-10-14T09:54:04.977Z,13.70
2022-10-14T09:56:41.679Z,13.80
2022-10-14T09:59:22.516Z,13.80
2022-10-14T10:01:56.346Z,13.90
2022-10-14T10:04:47.865Z,13.90
2022-10-14T10:07:34.414Z,14.00
2022-10-14T10:10:18.585Z,14.10
2022-10-14T10:12:47.244Z,14.20
2022-10-14T10:15:21.377Z,14.20
2022-10-14T10:17:49.781Z,14.30
2022-10-14T10:20:28.363Z,14.40
2022-10-14T10:23:17.980Z,14.50
2022-10-14T10:25:44.934Z,14.50
2022-10-14T10:28:31.071Z,14.50
2022-10-14T10:30:58.080Z,14.50
2022-10-14T10:33:57.004Z,14.50
2022-10-14T10:36:42.879Z,14.40
2022-10-14T10:39:43.952Z,14.50
2022-10-14T10:42:25.848Z,14.50
2022-10-14T10:45:36.330Z,14.40
2022-10-14T10:48:21.220Z,14.50
2022-10-14T10:51:00.713Z,14.50
2022-10-14T10:54:00.603Z,14.60
2022-10-14T10:56:49.156Z,14.70
2022-10-14T10:59:37.607Z,14.80
2022-10-14T11:02:23.452Z,14.80
2022-10-14T11:04:56.724Z,14.80
2022-10-14T11:08:02.488Z,14.80
2022-10-14T11:11:43.636Z,14.90
2022-10-14T11:14:42.100Z,14.90
2022-10-14T11:17:52.853Z,15.00
2022-10-14T11:20:31.156Z,15.00
2022-10-14T11:23:17.020Z,15.00
2022-10-14T11:26:27.262Z,15.10
2022-10-14T11:29:51.546Z,15.20
2022-10-14T11:33:09.062Z,15.30
2022-10-14T11:36:17.347Z,15.60
2022-10-14T11:38:59.788Z,15.70
2022-10-14T11:42:14.103Z,15.90
2022-10-14T11:44:45.116Z,16.10
2022-10-14T11:47:31.962Z,16.30
2022-10-14T11:50:38.017Z,16.30
2022-10-14T11:53:34.395Z,16.30
2022-10-14T11:56:14.884Z,16.20
2022-10-14T11:58:45.114Z,16.20
2022-10-14T12:01:15.012Z,16.20
2022-10-14T12:04:14.813Z,16.20
2022-10-14T12:06:48.922Z,16.20
2022-10-14T12:12:20.015Z,16.30
2022-10-14T12:14:55.314Z,16.40
2022-10-14T12:17:39.237Z,16.40
2022-10-14T12:20:53.117Z,16.40
2022-10-14T12:23:43.566Z,16.40
2022-10-14T12:26:20.122Z,16.40
2022-10-14T12:28:53.904Z,16.40
2022-10-14T12:31:36.862Z,16.40
2022-10-14T12:34:15.854Z,16.40
2022-10-14T12:36:46.757Z,16.40
2022-10-14T12:39:17.296Z,16.40
2022-10-14T12:42:14.666Z,16.40
2022-10-14T12:44:56.218Z,16.40
2022-10-14T12:47:34.927Z,16.30
2022-10-14T12:50:15.218Z,16.30
2022-10-14T12:52:55.298Z,16.30
2022-10-14T12:55:27.268Z,16.40
2022-10-14T12:58:02.135Z,16.40
2022-10-14T13:00:40.667Z,16.40
2022-10-14T13:03:23.733Z,16.40
2022-10-14T13:05:51.031Z,16.40
2022-10-14T13:08:21.046Z,16.40
2022-10-14T13:10:55.003Z,16.40
2022-10-14T13:13:44.880Z,16.40
2022-10-14T13:16:21.234Z,16.40
2022-10-14T13:18:58.413Z,16.40
2022-10-14T13:21:34.580Z,16.40
2022-10-14T13:24:26.216Z,16.40
2022-10-14T13:26:53.846Z,16.40
2022-10-14T13:29:20.773Z,16.40
2022-10-14T13:32:18.673Z,16.30
2022-10-14T13:35:03.096Z,16.30
2022-10-14T13:37:45.747Z,16.20
2022-10-14T13:40:36.370Z,16.20
2022-10-14T13:43:42.409Z,16.20
2022-10-14T13:46:44.184Z,16.20
2022-10-14T13:49:46.603Z,16.20
2022-10-14T13:52:26.014Z,16.20
2022-10-14T13:55:20.165Z,16.20
2022-10-14T13:58:17.587Z,16.20
2022-10-14T14:01:00.047Z,16.20
2022-10-14T14:03:41.712Z,16.10
2022-10-14T14:06:17.634Z,16.10
2022-10-14T14:08:55.380Z,16.00
2022-10-14T14:11:33.518Z,16.00
2022-10-14T14:14:20.697Z,16.00
2022-10-14T14:16:59.114Z,15.90
2022-10-14T14:19:36.146Z,15.90
2022-10-14T14:22:24.697Z,15.90
2022-10-14T14:24:52.286Z,15.90
2022-10-14T14:27:26.657Z,15.80
2022-10-14T14:29:55.205Z,15.80
2022-10-14T14:32:31.514Z,15.80
2022-10-14T14:35:12.673Z,15.90
2022-10-14T14:37:55.001Z,15.80
2022-10-14T14:40:30.126Z,15.90
2022-10-14T14:43:03.932Z,15.90
2022-10-14T14:45:44.796Z,15.90
2022-10-14T14:48:15.465Z,15.90
2022-10-14T14:50:45.287Z,15.90
2022-10-14T14:53:16.977Z,15.90
2022-10-14T14:55:48.370Z,15.90
2022-10-14T14:58:37.197Z,15.90
2022-10-14T15:01:24.913Z,15.80
2022-10-14T15:04:13.137Z,15.80
2022-10-14T15:07:02.045Z,15.80
2022-10-14T15:09:59.438Z,15.80
2022-10-14T15:12:41.866Z,15.70
2022-10-14T15:15:32.581Z,15.80
2022-10-14T15:18:05.472Z,15.80
2022-10-14T15:20:37.141Z,15.80
2022-10-14T15:23:41.270Z,15.80
2022-10-14T15:26:34.884Z,15.80
2022-10-14T15:29:08.391Z,15.70
2022-10-14T15:31:37.468Z,15.70
2022-10-14T15:34:06.318Z,15.60
2022-10-14T15:36:34.755Z,15.60
2022-10-14T15:39:03.378Z,15.50
2022-10-14T15:41:30.527Z,15.50
2022-10-14T15:43:57.670Z,15.50
2022-10-14T15:46:47.156Z,15.50
2022-10-14T15:49:28.311Z,15.40
2022-10-14T15:51:55.570Z,15.40
2022-10-14T15:54:27.147Z,15.40
2022-10-14T15:56:57.822Z,15.40
2022-10-14T15:59:25.659Z,15.30
2022-10-14T16:01:53.264Z,15.30
2022-10-14T16:04:27.822Z,15.30
2022-10-14T16:06:57.127Z,15.30
2022-10-14T16:09:27.775Z,15.20
2022-10-14T16:11:58.186Z,15.20
2022-10-14T16:14:28.283Z,15.20
2022-10-14T16:16:55.833Z,15.20
2022-10-14T16:19:26.416Z,15.10
2022-10-14T16:21:57.190Z,15.10
2022-10-14T16:24:27.258Z,15.10
2022-10-14T16:26:54.809Z,15.00
2022-10-14T16:29:25.463Z,15.00
2022-10-14T16:31:54.316Z,15.00
2022-10-14T16:34:23.504Z,15.00
2022-10-14T16:36:52.534Z,15.00
2022-10-14T16:39:20.535Z,15.00
2022-10-14T16:41:49.728Z,14.90
2022-10-14T16:44:27.314Z,14.90
2022-10-14T16:47:15.388Z,14.90
2022-10-14T16:49:49.281Z,14.90
2022-10-14T16:52:17.243Z,14.80
2022-10-14T16:54:44.531Z,14.80
2022-10-14T16:57:12.440Z,14.80
2022-10-14T16:59:39.823Z,14.80
2022-10-14T17:02:11.348Z,14.70
2022-10-14T17:04:42.483Z,14.70
2022-10-14T17:07:18.965Z,14.70
2022-10-14T17:09:49.849Z,14.70
2022-10-14T17:12:20.291Z,14.70
2022-10-14T17:14:50.792Z,14.60
2022-10-14T17:17:18.732Z,14.60
2022-10-14T17:19:48.611Z,14.60
2022-10-14T17:22:17.595Z,14.50
2022-10-14T17:24:49.386Z,14.50
2022-10-14T17:27:24.214Z,14.50
2022-10-14T17:29:53.515Z,14.50
2022-10-14T17:32:24.393Z,14.50
2022-10-14T17:34:54.721Z,14.50
2022-10-14T17:37:25.164Z,14.50
2022-10-14T17:39:52.924Z,14.40
2022-10-14T17:42:20.417Z,14.40
2022-10-14T17:44:48.022Z,14.40
2022-10-14T17:47:17.509Z,14.40
2022-10-14T17:49:48.304Z,14.40
2022-10-14T17:52:17.203Z,14.30
2022-10-14T17:54:48.478Z,14.30
2022-10-14T17:57:19.072Z,14.30
2022-10-14T17:59:49.710Z,14.30
2022-10-14T18:02:19.039Z,14.20
2022-10-14T18:04:50.617Z,14.20
2022-10-14T18:07:25.160Z,14.10
2022-10-14T18:09:56.202Z,14.10
2022-10-14T18:12:24.565Z,14.10
2022-10-14T18:14:52.559Z,14.10
2022-10-14T18:17:20.795Z,14.10
2022-10-14T18:19:52.964Z,14.00
2022-10-14T18:22:25.010Z,14.00
2022-10-14T18:24:52.782Z,13.90
2022-10-14T18:27:25.767Z,13.90
2022-10-14T18:29:53.593Z,13.90
2022-10-14T18:32:21.254Z,13.90
2022-10-14T18:34:55.407Z,13.90
2022-10-14T18:37:28.993Z,13.80
2022-10-14T18:39:56.527Z,13.90
2022-10-14T18:42:28.159Z,13.90
2022-10-14T18:44:59.414Z,13.80
2022-10-14T18:47:27.953Z,13.80
2022-10-14T18:49:56.192Z,13.80
2022-10-14T18:52:24.268Z,13.80
2022-10-14T18:54:52.067Z,13.80
2022-10-14T18:57:21.883Z,13.70
2022-10-14T18:59:59.554Z,13.70
2022-10-14T19:02:27.348Z,13.70
2022-10-14T19:04:56.990Z,13.70
2022-10-14T19:07:27.496Z,13.60
2022-10-14T19:09:57.829Z,13.60
2022-10-14T19:12:44.555Z,13.60
2022-10-14T19:15:12.995Z,13.60
2022-10-14T19:17:47.031Z,13.50
2022-10-14T19:20:15.628Z,13.50
2022-10-14T19:22:45.424Z,13.50
2022-10-14T19:25:21.023Z,13.40
2022-10-14T19:27:48.940Z,13.40
2022-10-14T19:30:26.703Z,13.30
2022-10-14T19:33:00.264Z,13.30
2022-10-14T19:35:32.707Z,13.20
2022-10-14T19:38:00.934Z,13.20
2022-10-14T19:40:38.181Z,13.10
2022-10-14T19:43:05.437Z,13.10
2022-10-14T19:45:35.768Z,13.00
2022-10-14T19:48:06.123Z,13.00
2022-10-14T19:50:33.762Z,13.00
2022-10-14T19:53:00.969Z,12.90
2022-10-14T19:55:28.434Z,12.90
2022-10-14T19:57:58.681Z,12.90
2022-10-14T20:00:25.771Z,12.90
2022-10-14T20:02:53.163Z,12.80
2022-10-14T20:05:20.909Z,12.80
2022-10-14T20:07:48.842Z,12.80
2022-10-14T20:10:16.491Z,12.80
2022-10-14T20:12:43.739Z,12.80
2022-10-14T20:15:14.550Z,12.70
2022-10-14T20:17:44.600Z,12.70
2022-10-14T20:20:12.597Z,12.70
2022-10-14T20:22:39.695Z,12.70
2022-10-14T20:25:08.040Z,12.70
2022-10-14T20:27:37.898Z,12.60
2022-10-14T20:30:09.505Z,12.60
2022-10-14T20:32:36.713Z,12.60
2022-10-14T20:35:04.188Z,12.50
2022-10-14T20:37:32.581Z,12.50
2022-10-14T20:40:00.142Z,12.50
2022-10-14T20:42:27.385Z,12.50
2022-10-14T20:44:57.794Z,12.40
2022-10-14T20:47:25.258Z,12.40
2022-10-14T20:49:52.672Z,12.40
2022-10-14T20:52:19.767Z,12.30
2022-10-14T20:54:46.864Z,12.30
2022-10-14T20:57:17.453Z,12.20
2022-10-14T20:59:50.700Z,12.20
2022-10-14T21:02:21.898Z,12.20
2022-10-14T21:04:51.132Z,12.10
2022-10-14T21:07:21.126Z,12.20
2022-10-14T21:09:52.352Z,12.20
2022-10-14T21:12:19.379Z,12.20
2022-10-14T21:14:46.540Z,12.10
2022-10-14T21:17:13.606Z,12.10
2022-10-14T21:19:43.902Z,12.00
2022-10-14T21:22:10.978Z,12.00
2022-10-14T21:24:41.132Z,12.00
2022-10-14T21:27:08.506Z,12.00
2022-10-14T21:29:35.559Z,11.90
2022-10-14T21:32:06.155Z,11.90
2022-10-14T21:34:33.724Z,11.90
2022-10-14T21:37:00.768Z,11.90
2022-10-14T21:39:27.943Z,11.90
2022-10-14T21:41:58.691Z,11.90
2022-10-14T21:44:28.611Z,11.90
2022-10-14T21:46:55.696Z,11.80
2022-10-14T21:49:26.109Z,11.80
2022-10-14T21:51:56.748Z,11.70
2022-10-14T21:54:27.549Z,11.70
2022-10-14T21:59:27.081Z,11.70
2022-10-14T22:01:56.592Z,11.60
2022-10-14T22:04:25.818Z,11.60
2022-10-14T22:06:53.173Z,11.60
2022-10-14T22:09:21.668Z,11.50
2022-10-14T22:11:53.872Z,11.60
2022-10-14T22:14:21.291Z,11.50
2022-10-14T22:16:57.852Z,11.50
2022-10-14T22:19:24.993Z,11.50
2022-10-14T22:21:52.387Z,11.50
2022-10-14T22:24:19.552Z,11.40
2022-10-14T22:26:49.901Z,11.40
2022-10-14T22:29:17.882Z,11.30
2022-10-14T22:31:46.296Z,11.30
2022-10-14T22:34:18.253Z,11.30
2022-10-14T22:36:45.913Z,11.30
2022-10-14T22:39:16.067Z,11.30
2022-10-14T22:41:43.605Z,11.20
2022-10-14T22:44:11.365Z,11.20
2022-10-14T22:46:40.419Z,11.20
2022-10-14T22:49:07.972Z,11.10
2022-10-14T22:51:42.805Z,11.10
2022-10-14T22:54:10.698Z,11.10
2022-10-14T22:56:40.675Z,11.00
2022-10-14T22:59:11.037Z,11.10
2022-10-14T23:01:40.163Z,11.10
2022-10-14T23:04:07.594Z,11.00
2022-10-14T23:06:43.767Z,11.00
2022-10-14T23:09:11.114Z,11.00
2022-10-14T23:11:38.695Z,11.00
2022-10-14T23:14:09.575Z,10.90
2022-10-14T23:16:38.658Z,10.90
2022-10-14T23:19:09.545Z,10.90
2022-10-14T23:21:38.300Z,10.80
2022-10-14T23:24:10.289Z,10.90
2022-10-14T23:26:37.923Z,10.80
2022-10-14T23:29:14.207Z,10.80
2022-10-14T23:31:42.693Z,10.80
2022-10-14T23:34:14.133Z,10.80
2022-10-14T23:36:44.812Z,10.80
2022-10-14T23:39:18.020Z,10.80
2022-10-14T23:41:45.117Z,10.80
2022-10-14T23:44:12.499Z,10.80
2022-10-14T23:46:39.569Z,10.70
2022-10-14T23:49:21.132Z,10.70
2022-10-14T23:51:51.990Z,10.70
2022-10-14T23:54:19.144Z,10.70
2022-10-14T23:56:52.928Z,10.70
2022-10-14T23:59:20.236Z,10.70
